Time;durP1;ratioP1;P1;durP2;ratioP2;P2;SDS_P1;SDS_P2;PMS_P1;PMS_P2;Temp;Humidity;BMP_temperature;BMP_pressure;BME280_temperature;BME280_humidity;BME280_pressure;Samples;Min_cycle;Max_cycle;Signal;HPM_P1;HPM_P2
2021/05/15 00:01:48;;;;;;;14.75;7.40;;;16.30;71.40;;;;;;5070618;28;20880;-72
2021/05/15 00:04:14;;;;;;;14.27;7.50;;;16.30;71.50;;;;;;5068057;28;20537;-72
2021/05/15 00:06:41;;;;;;;13.50;7.30;;;16.30;71.40;;;;;;5068318;28;20435;-72
2021/05/15 00:09:08;;;;;;;15.57;7.32;;;16.30;71.40;;;;;;5066392;28;20457;-72
2021/05/15 00:11:35;;;;;;;15.48;7.60;;;16.30;71.40;;;;;;5067939;28;20419;-71
2021/05/15 00:14:03;;;;;;;11.40;7.53;;;16.30;71.20;;;;;;5068007;28;20423;-72
2021/05/15 00:16:29;;;;;;;13.97;7.40;;;16.30;71.50;;;;;;5069949;28;20787;-73
2021/05/15 00:18:56;;;;;;;13.77;7.43;;;16.30;71.40;;;;;;5067583;28;20423;-72
2021/05/15 00:21:22;;;;;;;14.52;7.70;;;16.20;71.70;;;;;;5069196;28;20779;-72
2021/05/15 00:23:49;;;;;;;14.05;7.80;;;16.20;71.70;;;;;;5068378;28;20450;-72
2021/05/15 00:26:15;;;;;;;12.43;7.43;;;16.20;71.80;;;;;;5068016;28;20450;-72
2021/05/15 00:28:43;;;;;;;16.27;7.97;;;16.20;71.90;;;;;;5065139;28;20423;-72
2021/05/15 00:31:09;;;;;;;12.35;7.55;;;16.20;71.90;;;;;;5069607;28;20877;-71
2021/05/15 00:33:35;;;;;;;13.45;7.90;;;16.20;71.90;;;;;;5082895;28;20429;-71
2021/05/15 00:36:04;;;;;;;13.33;7.93;;;16.20;72.00;;;;;;5090034;28;20421;-71
2021/05/15 00:38:30;;;;;;;13.98;8.35;;;16.20;72.20;;;;;;5086442;28;20435;-73
2021/05/15 00:40:56;;;;;;;13.17;7.80;;;16.20;72.20;;;;;;5071376;28;20414;-72
2021/05/15 00:43:24;;;;;;;17.50;8.50;;;16.20;72.20;;;;;;5069052;28;20919;-71
2021/05/15 00:45:51;;;;;;;15.75;8.30;;;16.10;72.40;;;;;;5085848;28;20436;-73
2021/05/15 00:48:18;;;;;;;12.82;8.25;;;16.10;72.90;;;;;;5086540;28;20417;-73
2021/05/15 00:50:44;;;;;;;13.88;8.43;;;16.10;73.20;;;;;;5088456;28;20417;-72
2021/05/15 00:53:10;;;;;;;12.50;7.50;;;16.10;73.60;;;;;;5086074;28;20425;-72
2021/05/15 00:55:37;;;;;;;13.77;7.90;;;16.00;74.10;;;;;;5086848;28;20434;-73
2021/05/15 00:58:04;;;;;;;11.27;7.72;;;16.00;74.20;;;;;;5086656;28;20443;-72
2021/05/15 01:00:31;;;;;;;11.90;7.93;;;16.00;74.60;;;;;;5087737;28;20444;-72
2021/05/15 01:02:58;;;;;;;10.85;7.78;;;16.00;74.60;;;;;;5087628;28;20517;-71
2021/05/15 01:05:25;;;;;;;12.75;7.80;;;16.00;74.40;;;;;;5087361;28;20425;-72
2021/05/15 01:07:52;;;;;;;12.82;7.60;;;16.00;74.30;;;;;;5086012;28;20445;-72
2021/05/15 01:10:19;;;;;;;12.75;8.23;;;16.00;74.60;;;;;;5084864;28;20428;-71
2021/05/15 01:12:48;;;;;;;13.55;7.90;;;16.00;74.70;;;;;;5089668;28;20413;-74
2021/05/15 01:15:16;;;;;;;14.20;8.38;;;16.00;73.70;;;;;;5068920;28;20782;-71
2021/05/15 01:17:49;;;;;;;14.90;8.18;;;16.00;73.50;;;;;;5086715;28;20437;-71
2021/05/15 01:20:17;;;;;;;12.63;8.23;;;15.90;73.50;;;;;;5085744;28;20433;-72
2021/05/15 01:22:45;;;;;;;15.40;8.52;;;15.90;73.50;;;;;;5087264;28;20429;-71
2021/05/15 01:25:12;;;;;;;14.90;8.77;;;16.00;73.80;;;;;;5069024;28;20426;-73
2021/05/15 01:27:39;;;;;;;16.20;8.27;;;15.90;73.40;;;;;;5104411;28;20414;-73
2021/05/15 01:30:07;;;;;;;14.50;8.20;;;15.90;73.60;;;;;;5085761;28;20459;-71
2021/05/15 01:32:33;;;;;;;15.30;8.43;;;15.90;73.50;;;;;;5087655;28;20753;-72
2021/05/15 01:35:00;;;;;;;13.82;8.30;;;15.90;73.40;;;;;;5085759;28;20434;-71
2021/05/15 01:37:27;;;;;;;15.57;8.82;;;15.90;73.50;;;;;;5086825;28;20491;-71
2021/05/15 01:39:55;;;;;;;15.13;8.93;;;15.90;73.50;;;;;;5086298;28;20908;-72
2021/05/15 01:42:21;;;;;;;16.50;9.35;;;15.80;73.60;;;;;;5068593;28;20413;-73
2021/05/15 01:44:48;;;;;;;17.58;9.20;;;15.80;73.90;;;;;;5068277;28;20422;-72
2021/05/15 01:47:15;;;;;;;14.38;8.25;;;15.80;74.10;;;;;;5088538;28;20869;-72
2021/05/15 01:49:41;;;;;;;12.77;7.20;;;15.70;73.80;;;;;;5086138;28;20414;-72
2021/05/15 01:52:07;;;;;;;10.70;6.73;;;15.70;74.20;;;;;;5087223;28;20417;-72
2021/05/15 01:54:34;;;;;;;11.85;6.45;;;15.60;74.20;;;;;;5085127;28;20928;-72
2021/05/15 01:57:02;;;;;;;11.52;6.03;;;15.60;74.70;;;;;;5086199;28;20514;-72
2021/05/15 01:59:28;;;;;;;13.85;6.68;;;15.60;74.80;;;;;;5086319;28;20434;-71
2021/05/15 02:01:54;;;;;;;11.60;6.50;;;15.50;75.30;;;;;;5102192;28;20901;-72
2021/05/15 02:04:21;;;;;;;10.43;6.60;;;15.50;75.60;;;;;;5086776;28;20428;-72
2021/05/15 02:06:47;;;;;;;11.43;6.60;;;15.40;76.00;;;;;;5084206;28;20419;-71
2021/05/15 02:09:13;;;;;;;11.93;6.72;;;15.40;76.10;;;;;;5065195;28;20768;-71
2021/05/15 02:11:40;;;;;;;12.98;6.97;;;15.40;76.10;;;;;;5069002;28;20425;-72
2021/05/15 02:14:07;;;;;;;12.57;6.95;;;15.30;76.20;;;;;;5086073;28;20425;-73
2021/05/15 02:16:33;;;;;;;13.05;7.30;;;15.40;76.50;;;;;;5066894;28;20929;-72
2021/05/15 02:19:00;;;;;;;12.95;6.30;;;15.30;76.60;;;;;;5086610;28;20909;-72
2021/05/15 02:21:26;;;;;;;10.50;6.65;;;15.40;76.40;;;;;;5087549;28;20436;-71
2021/05/15 02:23:52;;;;;;;12.20;6.55;;;15.30;76.20;;;;;;5086640;28;20451;-72
2021/05/15 02:26:20;;;;;;;11.85;6.57;;;15.40;76.40;;;;;;5088230;28;20429;-72
2021/05/15 02:28:47;;;;;;;11.85;6.22;;;15.40;76.60;;;;;;5087008;28;20440;-71
2021/05/15 02:31:14;;;;;;;13.05;7.22;;;15.30;76.50;;;;;;5087226;28;20417;-73
2021/05/15 02:33:40;;;;;;;14.63;7.03;;;15.30;76.50;;;;;;5086033;28;20449;-72
2021/05/15 02:36:07;;;;;;;12.48;7.03;;;15.40;76.60;;;;;;5067199;28;20418;-71
2021/05/15 02:38:34;;;;;;;16.70;6.87;;;15.40;76.60;;;;;;5084691;28;20430;-71
2021/05/15 02:41:01;;;;;;;16.55;7.60;;;15.40;76.30;;;;;;5086147;28;20422;-72
2021/05/15 02:43:27;;;;;;;16.95;8.02;;;15.40;76.40;;;;;;5086874;28;20422;-72
2021/05/15 02:45:54;;;;;;;15.25;8.60;;;15.40;76.40;;;;;;5088448;28;20467;-72
2021/05/15 02:48:21;;;;;;;12.35;8.40;;;15.40;76.50;;;;;;5083817;28;21186;-72
2021/05/15 02:50:50;;;;;;;17.40;9.60;;;15.40;76.50;;;;;;5072666;28;20414;-72
2021/05/15 02:53:17;;;;;;;20.50;11.43;;;15.40;76.50;;;;;;5090004;28;20882;-72
2021/05/15 02:55:44;;;;;;;15.00;9.93;;;15.40;76.30;;;;;;5106144;28;20820;-71
2021/05/15 02:58:13;;;;;;;17.15;10.10;;;15.40;76.10;;;;;;5087642;28;20971;-72
2021/05/15 03:00:39;;;;;;;18.63;9.85;;;15.50;76.30;;;;;;5090943;28;21301;-71
2021/05/15 03:03:06;;;;;;;18.48;10.05;;;15.50;76.30;;;;;;5089755;28;20860;-72
2021/05/15 03:05:33;;;;;;;18.40;10.57;;;15.40;76.30;;;;;;5073629;28;20422;-73
2021/05/15 03:08:00;;;;;;;18.30;10.67;;;15.50;76.40;;;;;;5089393;28;20429;-74
2021/05/15 03:10:27;;;;;;;17.45;10.80;;;15.40;76.50;;;;;;5089127;28;20727;-72
2021/05/15 03:12:55;;;;;;;18.67;10.38;;;15.40;76.50;;;;;;5092214;28;20429;-72
2021/05/15 03:15:22;;;;;;;16.52;9.30;;;15.50;76.40;;;;;;5088564;28;20901;-72
2021/05/15 03:17:49;;;;;;;15.68;9.32;;;15.40;76.10;;;;;;5091218;28;20417;-71
2021/05/15 03:20:17;;;;;;;16.35;9.80;;;15.40;76.00;;;;;;5089026;28;20456;-73
2021/05/15 03:22:45;;;;;;;15.00;8.95;;;15.40;76.10;;;;;;5091443;28;21627;-72
2021/05/15 03:25:12;;;;;;;16.00;9.88;;;15.40;76.30;;;;;;5087313;28;20433;-72
2021/05/15 03:27:38;;;;;;;16.58;9.82;;;15.40;76.40;;;;;;5089131;28;20433;-72
2021/05/15 03:30:08;;;;;;;14.47;10.17;;;15.40;76.60;;;;;;5090231;28;20983;-72
2021/05/15 03:32:35;;;;;;;15.65;9.77;;;15.40;76.70;;;;;;5073431;28;20850;-71
2021/05/15 03:35:01;;;;;;;14.80;9.20;;;15.40;76.80;;;;;;5086704;28;20433;-72
2021/05/15 03:37:28;;;;;;;13.07;9.02;;;15.40;76.80;;;;;;5087848;28;20433;-72
2021/05/15 03:39:55;;;;;;;14.53;8.07;;;15.40;76.60;;;;;;5071543;28;20459;-71
2021/05/15 03:42:22;;;;;;;15.77;9.23;;;15.40;76.40;;;;;;5091226;28;20506;-71
2021/05/15 03:44:48;;;;;;;16.40;8.93;;;15.40;76.60;;;;;;5071950;28;20432;-73
2021/05/15 03:47:14;;;;;;;18.53;9.13;;;15.40;76.70;;;;;;5091244;28;20429;-71
2021/05/15 03:49:41;;;;;;;15.25;8.98;;;15.40;77.00;;;;;;5104357;28;20508;-71
2021/05/15 03:52:07;;;;;;;15.77;9.40;;;15.40;78.50;;;;;;5089523;28;20409;-72
2021/05/15 03:54:33;;;;;;;16.65;9.57;;;15.30;79.70;;;;;;5088871;28;20432;-73
2021/05/15 03:57:01;;;;;;;19.02;10.35;;;15.30;80.30;;;;;;5091312;28;20878;-73
2021/05/15 03:59:27;;;;;;;16.60;10.45;;;15.30;81.00;;;;;;5086994;28;20422;-73
2021/05/15 04:01:54;;;;;;;18.05;10.73;;;15.20;81.60;;;;;;5088282;28;20913;-73
2021/05/15 04:04:20;;;;;;;15.65;10.45;;;15.20;81.90;;;;;;5070495;28;20422;-72
2021/05/15 04:06:46;;;;;;;20.52;10.82;;;15.20;82.10;;;;;;5088085;28;20425;-73
2021/05/15 04:09:13;;;;;;;22.67;10.85;;;15.20;82.10;;;;;;5070306;28;20198;-74
2021/05/15 04:11:40;;;;;;;21.65;10.45;;;14.70;82.90;;;;;;5091145;28;20221;-74
2021/05/15 04:14:20;;;;;;;19.90;11.95;;;14.40;83.90;;;;;;5089190;28;20433;-74
2021/05/15 04:17:00;;;;;;;19.60;12.00;;;14.60;84.80;;;;;;5104937;28;20521;-72
2021/05/15 04:19:27;;;;;;;22.55;12.45;;;14.80;84.10;;;;;;5069589;28;20421;-73
2021/05/15 04:21:53;;;;;;;18.80;11.80;;;14.80;84.00;;;;;;5090710;28;20457;-72
2021/05/15 04:24:23;;;;;;;21.05;12.05;;;14.90;83.90;;;;;;5088670;28;20428;-74
2021/05/15 04:26:50;;;;;;;23.05;11.43;;;14.90;83.60;;;;;;5088145;28;20865;-74
2021/05/15 04:29:17;;;;;;;23.20;12.20;;;14.90;83.70;;;;;;5088996;28;20421;-72
2021/05/15 04:31:44;;;;;;;21.75;11.27;;;14.90;84.60;;;;;;5088427;28;20928;-72
2021/05/15 04:34:10;;;;;;;18.75;11.68;;;14.90;84.00;;;;;;5088187;28;20425;-70
2021/05/15 04:36:37;;;;;;;20.58;11.90;;;14.90;84.30;;;;;;5090443;28;20410;-71
2021/05/15 04:39:04;;;;;;;23.65;11.77;;;14.90;84.50;;;;;;5085254;28;20414;-72
2021/05/15 04:41:30;;;;;;;23.00;12.15;;;14.90;84.80;;;;;;5090186;28;20761;-73
2021/05/15 04:43:57;;;;;;;17.75;11.70;;;14.90;85.10;;;;;;5088327;28;20438;-71
2021/05/15 04:46:24;;;;;;;18.70;12.85;;;14.90;85.20;;;;;;5090652;28;20412;-70
2021/05/15 04:48:50;;;;;;;20.58;12.25;;;14.80;85.40;;;;;;5086700;28;20459;-73
2021/05/15 04:51:17;;;;;;;23.45;13.65;;;14.80;85.50;;;;;;5104039;28;20479;-71
2021/05/15 04:53:43;;;;;;;19.55;12.40;;;14.80;85.90;;;;;;5087627;28;20428;-71
2021/05/15 04:56:10;;;;;;;17.85;10.77;;;14.80;86.00;;;;;;5088872;28;20502;-69
2021/05/15 04:58:37;;;;;;;19.00;10.52;;;14.80;86.30;;;;;;5101305;28;20920;-72
2021/05/15 05:01:04;;;;;;;17.02;10.20;;;14.80;86.60;;;;;;5088751;28;20482;-72
2021/05/15 05:03:31;;;;;;;15.98;10.65;;;14.80;87.10;;;;;;5085775;28;20480;-72
2021/05/15 05:05:57;;;;;;;17.17;10.27;;;14.70;87.60;;;;;;5086253;28;20425;-71
2021/05/15 05:08:25;;;;;;;15.93;10.95;;;14.60;88.60;;;;;;5083574;28;20466;-71
2021/05/15 05:10:51;;;;;;;16.20;11.20;;;14.60;89.50;;;;;;5087296;28;20421;-72
2021/05/15 05:13:18;;;;;;;17.02;11.57;;;14.60;90.30;;;;;;5102576;28;20417;-72
2021/05/15 05:15:44;;;;;;;16.23;10.75;;;14.60;90.90;;;;;;5085016;28;20433;-71
2021/05/15 05:18:11;;;;;;;16.23;10.30;;;14.60;90.90;;;;;;5086826;28;20416;-73
2021/05/15 05:20:38;;;;;;;16.17;10.57;;;14.60;90.80;;;;;;5086989;28;20413;-72
2021/05/15 05:23:05;;;;;;;15.10;11.05;;;14.60;91.00;;;;;;5085522;28;20876;-73
2021/05/15 05:25:31;;;;;;;16.67;10.40;;;14.60;91.20;;;;;;5069735;28;20409;-70
2021/05/15 05:27:59;;;;;;;13.88;9.05;;;14.50;91.50;;;;;;5071455;28;20241;-72
2021/05/15 05:30:25;;;;;;;13.02;8.43;;;14.20;91.80;;;;;;5088793;28;20194;-71
2021/05/15 05:32:52;;;;;;;13.75;8.18;;;13.80;92.10;;;;;;5086844;28;20306;-71
2021/05/15 05:35:19;;;;;;;16.38;7.55;;;13.60;92.40;;;;;;5069526;28;20232;-72
2021/05/15 05:37:48;;;;;;;12.35;6.38;;;13.40;92.70;;;;;;5087509;28;20209;-72
2021/05/15 05:40:16;;;;;;;11.48;6.38;;;13.20;92.80;;;;;;5085969;28;20202;-77
2021/05/15 05:42:43;;;;;;;13.48;6.07;;;13.10;93.10;;;;;;5103979;28;20249;-72
2021/05/15 05:45:12;;;;;;;8.27;5.07;;;13.00;93.40;;;;;;5086974;28;20604;-71
2021/05/15 05:47:39;;;;;;;6.30;4.65;;;12.90;93.60;;;;;;5088307;28;20201;-71
2021/05/15 05:50:07;;;;;;;6.60;4.90;;;12.80;93.80;;;;;;5087239;28;20259;-71
2021/05/15 05:52:33;;;;;;;5.25;4.25;;;12.70;94.10;;;;;;5089442;28;20566;-73
2021/05/15 05:55:01;;;;;;;6.15;4.50;;;12.70;94.50;;;;;;5087272;28;20559;-70
2021/05/15 05:57:27;;;;;;;6.75;4.85;;;12.70;94.70;;;;;;5069314;28;21015;-71
2021/05/15 05:59:53;;;;;;;6.88;5.80;;;12.60;95.00;;;;;;5088203;28;20714;-72
2021/05/15 06:02:20;;;;;;;9.18;5.82;;;12.60;95.20;;;;;;5088727;28;20681;-72
2021/05/15 06:04:46;;;;;;;6.30;5.57;;;12.60;95.50;;;;;;5100477;28;20699;-71
2021/05/15 06:07:13;;;;;;;8.13;5.97;;;12.50;95.70;;;;;;5088211;28;20669;-72
2021/05/15 06:09:40;;;;;;;9.02;5.95;;;12.50;95.90;;;;;;5081802;28;20201;-72
2021/05/15 06:12:10;;;;;;;9.52;7.05;;;12.50;96.00;;;;;;5087609;28;20404;-71
2021/05/15 06:14:36;;;;;;;9.77;7.60;;;12.80;97.30;;;;;;5083397;28;20444;-72
2021/05/15 06:17:03;;;;;;;8.82;7.00;;;13.20;97.90;;;;;;5081933;28;20422;-72
2021/05/15 06:19:29;;;;;;;8.70;6.80;;;13.30;98.40;;;;;;5081762;28;20421;-71
2021/05/15 06:21:57;;;;;;;8.10;6.18;;;13.50;98.30;;;;;;5084260;28;20209;-72
2021/05/15 06:24:23;;;;;;;8.82;6.60;;;13.20;98.40;;;;;;5083064;28;20249;-71
2021/05/15 06:26:50;;;;;;;8.35;5.53;;;13.00;98.50;;;;;;5099016;28;20214;-73
2021/05/15 06:29:18;;;;;;;7.32;5.97;;;12.90;98.60;;;;;;5083397;28;20281;-74
2021/05/15 06:31:44;;;;;;;7.93;5.93;;;12.70;98.60;;;;;;5068454;28;20288;-74
2021/05/15 06:34:10;;;;;;;8.20;5.78;;;12.70;98.70;;;;;;5080852;28;20212;-74
2021/05/15 06:36:37;;;;;;;7.68;5.90;;;12.60;98.60;;;;;;5084422;28;20247;-71
2021/05/15 06:39:04;;;;;;;7.93;6.10;;;12.50;98.60;;;;;;5096134;28;20210;-74
2021/05/15 06:41:30;;;;;;;7.47;6.10;;;12.50;98.60;;;;;;5083962;28;20202;-72
2021/05/15 06:43:57;;;;;;;9.98;6.65;;;12.50;98.70;;;;;;5085237;28;20233;-74
2021/05/15 06:46:24;;;;;;;;;;;12.50;98.80;;;;;;5087214;28;20051;-70
2021/05/15 06:48:50;;;;;;;;;;;12.40;98.80;;;;;;5085527;28;19920;-71
2021/05/15 06:51:16;;;;;;;;;;;12.40;99.00;;;;;;5087264;28;19943;-72
2021/05/15 06:53:43;;;;;;;;;;;12.40;99.30;;;;;;5086008;28;19928;-71
2021/05/15 06:56:09;;;;;;;;;;;12.40;99.40;;;;;;5086593;28;19920;-72
2021/05/15 06:58:35;;;;;;;;;;;12.40;99.50;;;;;;5086754;28;19923;-74
2021/05/15 07:01:01;;;;;;;;;;;12.40;99.50;;;;;;5086281;28;19931;-73
2021/05/15 07:03:29;;;;;;;;;;;12.50;99.60;;;;;;5087320;28;20375;-70
2021/05/15 07:05:55;;;;;;;;;;;12.50;99.60;;;;;;5089733;28;19927;-70
2021/05/15 07:08:21;;;;;;;;;;;12.50;99.50;;;;;;5101463;28;20455;-70
2021/05/15 07:10:47;;;;;;;;;;;12.50;99.40;;;;;;5087443;28;20287;-70
2021/05/15 07:13:14;;;;;;;;;;;12.50;99.50;;;;;;5085789;28;20015;-69
2021/05/15 07:15:40;;;;;;;;;;;12.50;99.60;;;;;;5100407;28;20272;-69
2021/05/15 07:18:06;;;;;;;;;;;12.60;99.70;;;;;;5081240;28;20038;-75
2021/05/15 07:20:34;;;;;;;;;;;12.60;99.50;;;;;;5104835;28;19924;-75
2021/05/15 07:23:00;;;;;;;7.95;6.45;;;12.70;99.50;;;;;;5089626;28;20300;-73
2021/05/15 07:25:27;;;;;;;11.30;7.50;;;12.70;98.60;;;;;;5085843;28;20216;-73
2021/05/15 07:27:53;;;;;;;12.02;7.38;;;12.80;98.40;;;;;;5086858;28;20335;-72
2021/05/15 07:30:20;;;;;;;9.73;7.15;;;12.80;98.40;;;;;;5087201;28;20292;-73
2021/05/15 07:32:48;;;;;;;9.48;7.50;;;12.80;98.50;;;;;;5067209;28;20219;-73
2021/05/15 07:35:15;;;;;;;10.65;6.70;;;12.90;98.60;;;;;;5065849;28;20700;-73
2021/05/15 07:37:42;;;;;;;10.05;6.97;;;12.90;98.70;;;;;;5069960;28;20199;-74
2021/05/15 07:40:09;;;;;;;10.50;7.72;;;12.90;98.70;;;;;;5068644;28;20363;-70
2021/05/15 07:42:35;;;;;;;12.07;7.88;;;12.90;98.70;;;;;;5069518;28;20218;-72
2021/05/15 07:45:02;;;;;;;12.57;7.43;;;12.90;98.70;;;;;;5068496;28;20204;-71
2021/05/15 07:47:29;;;;;;;10.07;7.63;;;12.90;98.70;;;;;;5072115;28;20206;-71
2021/05/15 07:49:57;;;;;;;12.77;7.88;;;12.90;98.70;;;;;;5071803;28;20229;-73
2021/05/15 07:52:26;;;;;;;15.80;9.13;;;13.00;98.80;;;;;;5072703;28;20201;-73
2021/05/15 07:54:54;;;;;;;13.65;9.82;;;13.00;98.80;;;;;;5068329;28;20435;-71
2021/05/15 07:57:20;;;;;;;12.68;8.45;;;13.40;99.80;;;;;;5070860;28;20417;-72
2021/05/15 07:59:47;;;;;;;10.27;7.70;;;13.70;98.20;;;;;;5069274;28;20783;-71
2021/05/15 08:02:14;;;;;;;12.60;7.75;;;13.90;96.20;;;;;;5070550;28;20496;-72
2021/05/15 08:04:40;;;;;;;11.45;8.25;;;14.10;95.70;;;;;;5069167;28;20438;-71
2021/05/15 08:07:06;;;;;;;10.93;7.50;;;14.20;96.20;;;;;;5069642;28;20423;-72
2021/05/15 08:09:33;;;;;;;11.30;8.40;;;14.40;95.60;;;;;;5080256;28;20423;-71
2021/05/15 08:12:00;;;;;;;10.73;8.10;;;14.40;95.60;;;;;;5070659;28;20778;-72
2021/05/15 08:14:27;;;;;;;13.00;9.05;;;14.50;96.00;;;;;;5068816;28;20426;-69
2021/05/15 08:16:53;;;;;;;13.70;8.88;;;14.60;95.90;;;;;;5070370;28;20431;-71
2021/05/15 08:19:20;;;;;;;12.43;8.50;;;14.70;95.90;;;;;;5066347;28;20439;-74
2021/05/15 08:21:46;;;;;;;12.27;8.48;;;14.80;96.00;;;;;;5070767;28;20403;-72
2021/05/15 08:24:12;;;;;;;14.68;9.60;;;14.90;94.90;;;;;;5068379;28;21577;-73
2021/05/15 08:26:40;;;;;;;12.50;8.50;;;15.00;95.70;;;;;;5068086;28;20427;-73
2021/05/15 08:29:09;;;;;;;14.23;9.18;;;15.10;93.90;;;;;;5067255;28;20961;-72
2021/05/15 08:31:36;;;;;;;14.07;9.55;;;15.20;93.50;;;;;;5070783;28;20415;-73
2021/05/15 08:34:02;;;;;;;15.75;10.10;;;15.30;93.50;;;;;;5065867;28;20423;-72
2021/05/15 08:36:31;;;;;;;15.10;9.83;;;15.40;93.20;;;;;;5067764;28;20502;-73
2021/05/15 08:38:57;;;;;;;13.70;9.57;;;15.50;93.90;;;;;;5066441;28;20431;-72
2021/05/15 08:41:24;;;;;;;12.93;9.52;;;15.50;94.30;;;;;;5067883;28;20427;-72
2021/05/15 08:43:51;;;;;;;13.82;10.20;;;15.50;93.10;;;;;;5068514;28;20431;-72
2021/05/15 08:46:20;;;;;;;12.88;9.95;;;15.60;92.80;;;;;;5082907;28;20459;-72
2021/05/15 08:48:47;;;;;;;14.18;10.55;;;15.70;93.60;;;;;;5066671;28;20541;-73
2021/05/15 08:51:14;;;;;;;13.00;10.25;;;15.80;92.60;;;;;;5069125;28;20477;-73
2021/05/15 08:53:41;;;;;;;14.63;10.68;;;15.80;91.70;;;;;;5065478;28;20471;-73
2021/05/15 08:56:08;;;;;;;14.90;11.30;;;15.90;91.20;;;;;;5069597;28;20899;-73
2021/05/15 08:58:36;;;;;;;15.95;11.35;;;15.90;91.50;;;;;;5066389;28;20431;-72
2021/05/15 09:01:04;;;;;;;14.63;11.02;;;16.00;90.20;;;;;;5068377;28;20407;-72
2021/05/15 09:03:32;;;;;;;14.20;11.60;;;16.00;88.60;;;;;;5067442;28;20835;-72
2021/05/15 09:05:59;;;;;;;13.75;10.60;;;16.00;86.40;;;;;;5069854;28;20748;-72
2021/05/15 09:08:25;;;;;;;16.45;10.70;;;16.00;85.80;;;;;;5065014;28;21253;-71
2021/05/15 09:10:52;;;;;;;16.05;10.48;;;16.00;84.60;;;;;;5066156;28;20506;-72
2021/05/15 09:13:20;;;;;;;12.67;10.03;;;16.00;84.70;;;;;;5083128;28;20434;-73
2021/05/15 09:15:48;;;;;;;14.80;10.25;;;15.90;85.30;;;;;;5065487;28;20930;-72
2021/05/15 09:18:16;;;;;;;17.47;11.97;;;15.90;84.70;;;;;;5066953;28;21077;-73
2021/05/15 09:20:44;;;;;;;16.70;11.00;;;15.90;86.40;;;;;;5069781;28;20498;-72
2021/05/15 09:23:19;;;;;;;14.73;10.82;;;15.90;86.10;;;;;;5067503;28;20484;-73
2021/05/15 09:25:55;;;;;;;13.98;10.30;;;16.00;88.50;;;;;;5067258;28;20447;-70
2021/05/15 09:28:34;;;;;;;14.93;10.13;;;16.10;86.80;;;;;;5065793;28;20503;-71
2021/05/15 09:31:25;;;;;;;14.43;10.40;;;16.20;86.40;;;;;;5067920;28;20423;-73
2021/05/15 09:33:52;;;;;;;15.07;10.73;;;16.40;83.10;;;;;;5076728;28;20427;-70
2021/05/15 09:36:22;;;;;;;15.33;10.53;;;16.40;80.60;;;;;;5063421;28;20424;-70
2021/05/15 09:39:00;;;;;;;15.27;10.40;;;16.40;80.40;;;;;;5068140;28;20522;-69
2021/05/15 09:41:34;;;;;;;15.50;10.65;;;16.50;79.90;;;;;;5068987;28;20419;-72
2021/05/15 09:44:01;;;;;;;15.13;10.98;;;16.50;81.10;;;;;;5066919;28;20430;-72
2021/05/15 09:46:28;;;;;;;13.15;9.38;;;16.50;81.10;;;;;;5067990;28;20455;-69
2021/05/15 09:48:55;;;;;;;13.10;9.50;;;16.50;79.90;;;;;;5066301;28;20423;-70
2021/05/15 09:51:23;;;;;;;14.23;9.82;;;16.50;78.90;;;;;;5066754;28;20423;-71
2021/05/15 09:53:50;;;;;;;13.82;9.60;;;16.50;78.40;;;;;;5066394;28;20776;-72
2021/05/15 09:56:27;;;;;;;15.05;10.57;;;16.60;77.70;;;;;;5069043;28;20411;-71
2021/05/15 09:58:56;;;;;;;14.90;10.30;;;16.70;78.30;;;;;;5065625;28;20481;-71
2021/05/15 10:01:22;;;;;;;17.20;10.17;;;16.80;79.20;;;;;;5067493;28;20418;-70
2021/05/15 10:03:57;;;;;;;15.88;10.52;;;16.80;78.90;;;;;;5064680;28;20429;-71
2021/05/15 10:06:24;;;;;;;17.65;10.88;;;16.80;75.60;;;;;;5065905;28;21748;-70
2021/05/15 10:08:51;;;;;;;20.52;11.05;;;16.90;75.00;;;;;;5065249;28;20792;-72
2021/05/15 10:11:20;;;;;;;18.02;10.60;;;16.90;74.40;;;;;;5065809;28;20442;-70
2021/05/15 10:13:47;;;;;;;16.00;10.35;;;16.90;75.10;;;;;;5067421;28;20455;-71
2021/05/15 10:16:14;;;;;;;14.98;9.38;;;16.90;76.60;;;;;;5065660;28;20840;-70
2021/05/15 10:18:40;;;;;;;13.13;9.23;;;17.00;74.80;;;;;;5078381;28;20475;-72
2021/05/15 10:21:07;;;;;;;17.55;9.85;;;17.10;73.40;;;;;;5068734;28;20412;-73
2021/05/15 10:23:39;;;;;;;16.08;10.23;;;17.10;73.10;;;;;;5066126;28;20784;-70
2021/05/15 10:26:08;;;;;;;16.33;11.30;;;17.00;73.00;;;;;;5067965;28;20419;-71
2021/05/15 10:28:36;;;;;;;15.50;10.52;;;17.10;71.80;;;;;;5065504;28;20437;-71
2021/05/15 10:31:09;;;;;;;16.50;10.45;;;17.10;70.90;;;;;;5068404;28;20502;-70
2021/05/15 10:33:36;;;;;;;16.27;10.02;;;17.10;72.80;;;;;;5077295;28;20431;-70
2021/05/15 10:36:05;;;;;;;17.40;10.05;;;17.00;71.70;;;;;;5087320;28;22422;-72
2021/05/15 10:38:34;;;;;;;17.40;10.15;;;17.00;71.00;;;;;;5082051;28;20469;-70
2021/05/15 10:41:16;;;;;;;20.05;9.95;;;16.90;70.50;;;;;;5098410;28;20418;-71
2021/05/15 10:43:43;;;;;;;17.25;10.68;;;16.90;71.20;;;;;;5085183;28;20429;-71
2021/05/15 10:46:22;;;;;;;21.65;11.75;;;16.90;72.30;;;;;;5088645;28;20437;-70
2021/05/15 10:49:00;;;;;;;22.00;12.45;;;17.00;70.30;;;;;;5083402;28;20441;-69
2021/05/15 10:51:41;;;;;;;20.92;11.55;;;16.90;69.70;;;;;;5084127;28;20445;-71
2021/05/15 10:54:10;;;;;;;22.80;12.30;;;16.90;72.20;;;;;;5085652;28;20422;-73
2021/05/15 10:56:37;;;;;;;19.50;12.38;;;16.90;72.50;;;;;;5088642;28;20410;-71
2021/05/15 10:59:07;;;;;;;21.57;12.93;;;16.90;72.90;;;;;;5085754;28;20422;-71
2021/05/15 11:01:48;;;;;;;25.90;13.37;;;16.80;72.60;;;;;;5085831;28;20436;-71
2021/05/15 11:04:20;;;;;;;25.40;13.13;;;16.80;72.10;;;;;;5084645;28;20422;-69
2021/05/15 11:06:56;;;;;;;22.38;13.20;;;16.80;72.90;;;;;;5083293;28;20769;-71
2021/05/15 11:09:25;;;;;;;25.05;12.70;;;16.80;72.80;;;;;;5081385;28;20664;-71
2021/05/15 11:11:53;;;;;;;19.33;12.23;;;16.70;72.10;;;;;;5091911;28;20823;-71
2021/05/15 11:14:27;;;;;;;22.58;12.75;;;16.70;72.30;;;;;;5088630;28;20506;-70
2021/05/15 11:17:16;;;;;;;20.60;12.27;;;16.80;72.00;;;;;;5089772;28;20424;-71
2021/05/15 11:19:50;;;;;;;20.80;13.30;;;16.90;71.20;;;;;;5089404;28;20762;-71
2021/05/15 11:22:18;;;;;;;21.00;13.10;;;17.00;71.30;;;;;;5090223;28;20417;-70
2021/05/15 11:24:53;;;;;;;21.08;13.32;;;17.10;70.90;;;;;;5085086;28;20427;-72
2021/05/15 11:27:21;;;;;;;18.10;12.68;;;17.20;70.30;;;;;;5088319;28;20435;-70
2021/05/15 11:29:50;;;;;;;18.85;12.57;;;17.30;68.70;;;;;;5089987;28;20422;-71
2021/05/15 11:32:18;;;;;;;16.65;11.75;;;17.30;69.30;;;;;;5092095;28;20842;-71
2021/05/15 11:34:44;;;;;;;20.30;11.60;;;17.40;68.50;;;;;;5071613;28;20769;-71
2021/05/15 11:37:13;;;;;;;14.70;10.88;;;17.60;68.80;;;;;;5091976;28;20837;-70
2021/05/15 11:39:40;;;;;;;15.75;10.65;;;17.60;66.50;;;;;;5087131;28;20965;-71
2021/05/15 11:42:10;;;;;;;15.32;11.35;;;17.80;65.10;;;;;;5091827;28;20409;-71
2021/05/15 11:44:40;;;;;;;14.67;10.80;;;17.80;65.10;;;;;;5088679;28;20421;-70
2021/05/15 11:47:08;;;;;;;18.75;11.65;;;17.80;64.60;;;;;;5089204;28;20429;-69
2021/05/15 11:49:36;;;;;;;17.27;12.43;;;17.80;66.00;;;;;;5088439;28;20425;-71
2021/05/15 11:52:04;;;;;;;16.20;11.70;;;17.80;66.00;;;;;;5088182;28;20425;-71
2021/05/15 11:54:31;;;;;;;18.50;12.93;;;17.80;66.10;;;;;;5089362;28;20430;-71
2021/05/15 11:56:58;;;;;;;16.80;13.20;;;17.70;66.00;;;;;;5090966;28;20422;-72
2021/05/15 11:59:25;;;;;;;21.08;14.50;;;17.70;67.30;;;;;;5087057;28;20418;-70
2021/05/15 12:01:53;;;;;;;18.00;14.25;;;17.60;67.00;;;;;;5090810;28;20913;-70
2021/05/15 12:04:25;;;;;;;21.55;14.85;;;17.50;67.70;;;;;;5089449;28;20421;-71
2021/05/15 12:06:56;;;;;;;18.60;13.98;;;17.40;68.80;;;;;;5090022;28;20430;-70
2021/05/15 12:09:23;;;;;;;20.67;14.50;;;17.30;69.10;;;;;;5100447;28;20421;-75
2021/05/15 12:11:58;;;;;;;21.83;14.98;;;17.20;69.90;;;;;;5072495;28;20434;-72
2021/05/15 12:14:25;;;;;;;22.00;15.85;;;17.10;70.40;;;;;;5088625;28;20417;-70
2021/05/15 12:16:52;;;;;;;23.40;15.82;;;17.10;70.90;;;;;;5106767;28;20424;-70
2021/05/15 12:19:22;;;;;;;19.50;14.30;;;17.10;71.80;;;;;;5088273;28;20419;-70
2021/05/15 12:21:59;;;;;;;21.45;14.43;;;17.10;72.30;;;;;;5084641;28;20965;-69
2021/05/15 12:24:35;;;;;;;19.25;14.07;;;17.00;72.60;;;;;;5070799;28;20430;-68
2021/05/15 12:27:10;;;;;;;19.35;14.80;;;17.00;72.10;;;;;;5087981;28;20516;-71
2021/05/15 12:29:36;;;;;;;22.13;15.30;;;17.00;71.90;;;;;;5088489;28;20424;-72
2021/05/15 12:32:04;;;;;;;19.38;14.23;;;17.00;73.00;;;;;;5089737;28;20754;-72
2021/05/15 12:34:31;;;;;;;20.45;14.32;;;17.10;72.90;;;;;;5088793;28;20501;-69
2021/05/15 12:36:58;;;;;;;20.77;14.38;;;17.10;72.20;;;;;;5090372;28;20841;-72
2021/05/15 12:39:33;;;;;;;19.40;14.05;;;17.20;72.20;;;;;;5068124;28;20426;-71
2021/05/15 12:42:00;;;;;;;22.05;15.20;;;17.30;70.70;;;;;;5089920;28;20501;-74